Time;durP1;ratioP1;P1;durP2;ratioP2;P2;SDS_P1;SDS_P2;PMS_P1;PMS_P2;Temp;Humidity;BMP_temperature;BMP_pressure;BME280_temperature;BME280_humidity;BME280_pressure;Samples;Min_cycle;Max_cycle;Signal;HPM_P1;HPM_P2
2022/04/24 00:00:21;;;;;;;10.43;7.05;;;;;;;20.40;39.33;100548.38;5049368;28;20059;-42
2022/04/24 00:02:48;;;;;;;10.93;6.80;;;;;;;20.37;39.48;100549.56;5048895;28;20049;-40
2022/04/24 00:05:15;;;;;;;10.15;6.70;;;;;;;20.37;39.13;100544.16;5047063;28;20127;-41
2022/04/24 00:07:41;;;;;;;9.63;6.80;;;;;;;20.37;39.34;100549.56;5047981;28;20075;-41
2022/04/24 00:10:10;;;;;;;8.75;6.00;;;;;;;20.36;39.12;100542.50;5048427;28;20395;-41
2022/04/24 00:12:37;;;;;;;9.05;6.28;;;;;;;20.35;39.75;100545.38;5046605;28;20312;-41
2022/04/24 00:15:04;;;;;;;10.43;6.70;;;;;;;20.34;39.67;100547.25;5048801;28;20040;-40
2022/04/24 00:17:30;;;;;;;8.90;5.70;;;;;;;20.33;39.38;100548.22;5048354;28;20060;-41
2022/04/24 00:19:57;;;;;;;10.18;6.07;;;;;;;20.32;39.53;100541.19;5046506;28;20041;-42
2022/04/24 00:22:23;;;;;;;8.82;5.78;;;;;;;20.32;39.46;100551.09;5047465;28;20132;-42
2022/04/24 00:24:50;;;;;;;7.97;5.25;;;;;;;20.30;40.15;100550.44;5049108;28;20044;-40
2022/04/24 00:27:16;;;;;;;7.80;5.43;;;;;;;20.30;40.02;100545.03;5045956;28;20059;-43
2022/04/24 00:29:43;;;;;;;9.02;5.82;;;;;;;20.29;39.94;100536.13;5047781;28;20049;-40
2022/04/24 00:32:09;;;;;;;7.25;5.25;;;;;;;20.28;39.90;100539.84;5047756;28;20059;-41
2022/04/24 00:34:36;;;;;;;11.13;5.55;;;;;;;20.28;39.70;100541.72;5044227;28;20041;-42
2022/04/24 00:37:04;;;;;;;8.00;5.57;;;;;;;20.27;40.14;100537.34;5049277;28;20049;-42
2022/04/24 00:39:30;;;;;;;7.57;5.00;;;;;;;20.26;40.29;100538.34;5045151;28;20057;-41
2022/04/24 00:41:57;;;;;;;8.35;5.65;;;;;;;20.25;40.56;100533.97;5047770;28;20421;-42
2022/04/24 00:44:23;;;;;;;8.77;5.68;;;;;;;20.23;39.98;100538.72;5043730;28;20064;-42
2022/04/24 00:46:57;;;;;;;7.50;5.13;;;;;;;20.21;40.06;100538.88;5047182;28;20053;-41
2022/04/24 00:49:23;;;;;;;;;;;;;;;20.20;39.98;100534.50;5043727;28;20062;-41
2022/04/24 00:51:51;;;;;;;9.07;5.93;;;;;;;20.21;40.35;100547.78;5046357;28;19928;-42
2022/04/24 00:54:18;;;;;;;6.95;5.05;;;;;;;20.19;39.96;100543.59;5048601;28;20049;-41
2022/04/24 00:56:44;;;;;;;7.13;4.90;;;;;;;20.19;40.57;100532.84;5046349;28;20062;-41
2022/04/24 00:59:13;;;;;;;7.05;4.93;;;;;;;20.17;40.71;100540.22;5044906;28;21143;-41
2022/04/24 01:01:41;;;;;;;6.57;4.35;;;;;;;20.17;40.60;100534.84;5044179;28;20053;-42
2022/04/24 01:04:10;;;;;;;10.00;5.38;;;;;;;20.15;40.76;100535.03;5045185;28;20049;-41
2022/04/24 01:06:41;;;;;;;7.00;4.95;;;;;;;20.14;40.69;100530.69;5047230;28;20057;-42
2022/04/24 01:09:12;;;;;;;7.00;4.85;;;;;;;20.14;40.41;100529.81;5046262;28;20135;-41
2022/04/24 01:11:39;;;;;;;7.55;4.90;;;;;;;20.12;40.75;100535.38;5047385;28;20080;-41
2022/04/24 01:14:06;;;;;;;6.60;4.90;;;;;;;20.11;40.61;100530.19;5048332;28;20136;-41
2022/04/24 01:16:33;;;;;;;6.97;4.75;;;;;;;20.10;41.43;100523.97;5045503;28;20049;-41
2022/04/24 01:19:00;;;;;;;6.90;4.82;;;;;;;20.10;41.17;100523.09;5044343;28;20055;-41
2022/04/24 01:21:26;;;;;;;6.82;4.97;;;;;;;20.10;40.83;100523.09;5047769;28;20507;-42
2022/04/24 01:23:53;;;;;;;7.57;5.18;;;;;;;20.08;41.31;100517.91;5045995;28;20055;-42
2022/04/24 01:26:19;;;;;;;8.07;4.50;;;;;;;20.07;41.44;100524.31;5046317;28;20339;-41
2022/04/24 01:28:46;;;;;;;6.13;4.68;;;;;;;20.06;41.51;100517.25;5047437;28;20073;-41
2022/04/24 01:31:12;;;;;;;5.72;4.45;;;;;;;20.06;41.53;100527.16;5043803;28;20054;-41
2022/04/24 01:33:39;;;;;;;6.55;4.60;;;;;;;20.03;41.49;100525.69;5046270;28;20995;-41
2022/04/24 01:36:06;;;;;;;6.50;4.38;;;;;;;20.04;41.19;100526.50;5046196;28;20420;-41
2022/04/24 01:38:33;;;;;;;7.63;5.10;;;;;;;20.01;41.86;100518.78;5046958;28;20136;-41
2022/04/24 01:40:59;;;;;;;6.47;4.50;;;;;;;20.00;41.34;100523.31;5046732;28;20131;-42
2022/04/24 01:43:26;;;;;;;8.25;4.57;;;;;;;20.00;41.13;100523.31;5044844;28;20052;-41
2022/04/24 01:45:53;;;;;;;6.43;4.78;;;;;;;20.00;41.30;100530.56;5047423;28;20051;-41
2022/04/24 01:48:20;;;;;;;5.65;4.50;;;;;;;19.99;41.69;100520.81;5047319;28;20045;-40
2022/04/24 01:50:46;;;;;;;6.32;4.60;;;;;;;19.98;41.75;100517.28;5044927;28;21217;-41
2022/04/24 01:53:13;;;;;;;6.50;4.63;;;;;;;19.97;41.37;100526.34;5043611;28;20049;-41
2022/04/24 01:55:40;;;;;;;6.63;4.82;;;;;;;19.97;41.62;100529.03;5046339;28;20049;-41
2022/04/24 01:58:06;;;;;;;6.05;3.88;;;;;;;19.94;41.88;100526.72;5042169;28;20080;-41
2022/04/24 02:00:33;;;;;;;6.30;4.65;;;;;;;19.95;41.25;100525.72;5045255;28;20048;-41
2022/04/24 02:02:59;;;;;;;6.22;4.50;;;;;;;19.92;41.54;100520.66;5045072;28;20417;-41
2022/04/24 02:05:26;;;;;;;5.45;3.97;;;;;;;19.90;41.75;100531.63;5044646;28;20072;-41
2022/04/24 02:07:53;;;;;;;6.15;4.65;;;;;;;19.89;41.69;100529.06;5047730;28;20393;-40
2022/04/24 02:10:19;;;;;;;6.72;4.55;;;;;;;19.90;41.52;100525.38;5049475;28;20045;-40
2022/04/24 02:12:46;;;;;;;5.50;4.45;;;;;;;19.87;41.82;100526.56;5045777;28;20068;-40
2022/04/24 02:15:13;;;;;;;5.53;4.03;;;;;;;19.87;42.11;100531.13;5043832;28;20136;-40
2022/04/24 02:17:39;;;;;;;5.65;4.40;;;;;;;19.85;41.48;100530.44;5046954;28;20057;-41
2022/04/24 02:20:06;;;;;;;6.22;4.55;;;;;;;19.84;42.02;100536.84;5044018;28;22180;-41
2022/04/24 02:22:33;;;;;;;5.22;4.10;;;;;;;19.82;42.29;100536.16;5045454;28;20139;-40
2022/04/24 02:25:00;;;;;;;6.18;4.57;;;;;;;19.81;41.94;100535.31;5046116;28;20055;-40
2022/04/24 02:27:27;;;;;;;5.35;4.25;;;;;;;19.81;41.55;100539.88;5046780;28;20120;-41
2022/04/24 02:29:54;;;;;;;6.63;4.68;;;;;;;19.78;42.24;100535.69;5043338;28;20057;-40
2022/04/24 02:32:20;;;;;;;6.85;4.32;;;;;;;19.79;42.38;100537.34;5043670;28;20323;-41
2022/04/24 02:34:47;;;;;;;7.75;4.57;;;;;;;19.77;41.91;100544.75;5045435;28;20045;-41
2022/04/24 02:37:17;;;;;;;6.18;4.55;;;;;;;19.76;42.24;100543.06;5043943;28;20049;-41
2022/04/24 02:39:44;;;;;;;5.78;4.20;;;;;;;19.74;41.96;100545.13;5043244;28;20122;-40
2022/04/24 02:42:12;;;;;;;6.38;4.55;;;;;;;19.73;41.72;100546.09;5047470;28;20037;-41
2022/04/24 02:44:38;;;;;;;5.47;4.60;;;;;;;19.71;42.37;100540.91;5045737;28;20050;-42
2022/04/24 02:47:06;;;;;;;5.18;4.40;;;;;;;19.71;41.94;100538.22;5048395;28;20522;-41
2022/04/24 02:49:32;;;;;;;5.70;4.38;;;;;;;19.68;42.00;100537.72;5042247;28;20191;-40
2022/04/24 02:51:59;;;;;;;5.40;4.18;;;;;;;19.66;42.63;100537.91;5049113;28;20422;-41
2022/04/24 02:54:25;;;;;;;4.97;4.35;;;;;;;19.66;42.23;100532.53;5050671;28;20045;-41
2022/04/24 02:56:52;;;;;;;5.25;4.20;;;;;;;19.65;42.16;100546.97;5047819;28;20704;-40
2022/04/24 02:59:18;;;;;;;5.57;4.35;;;;;;;19.64;42.34;100539.06;5048656;28;20048;-41
2022/04/24 03:01:45;;;;;;;5.90;4.47;;;;;;;19.64;42.51;100539.06;5048516;28;20045;-39
2022/04/24 03:04:13;;;;;;;6.43;4.35;;;;;;;19.62;42.37;100541.94;5047708;28;20060;-42
2022/04/24 03:06:39;;;;;;;5.88;3.63;;;;;;;19.61;42.25;100540.25;5050422;28;20119;-42
2022/04/24 03:09:06;;;;;;;5.45;4.15;;;;;;;19.60;42.70;100540.41;5046214;28;20052;-40
2022/04/24 03:11:33;;;;;;;5.63;4.22;;;;;;;19.58;42.57;100540.56;5048909;28;20042;-41
2022/04/24 03:13:59;;;;;;;5.45;4.45;;;;;;;19.57;42.93;100535.34;5049358;28;20055;-40
2022/04/24 03:16:26;;;;;;;6.18;4.32;;;;;;;19.56;42.94;100536.38;5048330;28;20041;-40
2022/04/24 03:18:53;;;;;;;5.75;4.45;;;;;;;19.56;42.89;100537.22;5049425;28;20036;-40
2022/04/24 03:21:19;;;;;;;4.22;3.53;;;;;;;19.54;42.74;100528.50;5048371;28;20128;-41
2022/04/24 03:23:46;;;;;;;8.00;4.55;;;;;;;19.55;42.56;100532.00;5048249;28;21894;-41
2022/04/24 03:26:14;;;;;;;7.88;4.75;;;;;;;19.54;42.65;100535.69;5050938;28;20379;-41
2022/04/24 03:28:41;;;;;;;6.60;4.10;;;;;;;19.52;42.79;100546.63;5049820;28;20557;-40
2022/04/24 03:31:08;;;;;;;4.68;3.92;;;;;;;19.52;43.14;100533.19;5042420;28;20070;-40
2022/04/24 03:33:34;;;;;;;6.72;4.65;;;;;;;19.51;42.85;100536.88;5044049;28;20124;-40
2022/04/24 03:36:01;;;;;;;5.28;3.92;;;;;;;19.51;42.61;100533.38;5048578;28;20043;-40
2022/04/24 03:38:27;;;;;;;4.70;3.67;;;;;;;19.48;43.01;100531.84;5049599;28;20314;-40
2022/04/24 03:40:54;;;;;;;6.25;4.15;;;;;;;19.47;43.10;100532.88;5047976;28;20144;-40
2022/04/24 03:43:20;;;;;;;5.20;3.72;;;;;;;19.48;42.91;100534.53;5050464;28;20053;-42
2022/04/24 03:45:47;;;;;;;5.00;3.58;;;;;;;19.47;43.19;100535.56;5048942;28;20043;-40
2022/04/24 03:48:13;;;;;;;5.53;3.63;;;;;;;19.46;43.20;100536.56;5047496;28;20120;-40
2022/04/24 03:50:40;;;;;;;5.20;3.50;;;;;;;19.46;42.98;100536.56;5048685;28;20049;-40
2022/04/24 03:53:07;;;;;;;6.78;3.67;;;;;;;19.44;43.36;100527.81;5049047;28;20523;-40
2022/04/24 03:55:34;;;;;;;5.80;3.88;;;;;;;19.43;43.00;100529.69;5044514;28;20131;-40
2022/04/24 03:58:00;;;;;;;4.32;3.20;;;;;;;19.42;42.50;100530.69;5047131;28;20047;-40
2022/04/24 04:00:27;;;;;;;4.93;3.63;;;;;;;19.42;43.01;100527.16;5047762;28;20357;-41
2022/04/24 04:02:53;;;;;;;5.05;3.83;;;;;;;19.38;43.21;100526.66;5045538;28;20047;-40
2022/04/24 04:05:22;;;;;;;4.68;3.53;;;;;;;19.38;43.01;100528.53;5044504;28;20049;-40
2022/04/24 04:07:48;;;;;;;5.68;3.28;;;;;;;19.37;43.53;100524.13;5046471;28;20064;-40
2022/04/24 04:10:15;;;;;;;4.88;3.67;;;;;;;19.38;42.92;100528.53;5045066;28;20171;-41
2022/04/24 04:12:41;;;;;;;5.35;3.90;;;;;;;19.38;42.97;100525.84;5048831;28;20040;-41
2022/04/24 04:15:08;;;;;;;4.90;3.47;;;;;;;19.37;43.18;100526.81;5048353;28;20526;-40
2022/04/24 04:17:35;;;;;;;5.45;3.10;;;;;;;19.36;43.10;100536.72;5050205;28;20491;-41
2022/04/24 04:20:02;;;;;;;4.38;3.42;;;;;;;19.33;43.11;100529.00;5044652;28;20914;-41
2022/04/24 04:22:28;;;;;;;4.72;3.58;;;;;;;19.32;42.74;100535.41;5046629;28;20143;-41
2022/04/24 04:24:55;;;;;;;4.18;3.00;;;;;;;19.34;43.03;100546.00;5047972;28;20045;-40
2022/04/24 04:27:21;;;;;;;4.22;3.40;;;;;;;19.31;43.70;100538.25;5050059;28;20047;-41
2022/04/24 04:29:48;;;;;;;4.85;3.05;;;;;;;19.31;43.28;100540.94;5045183;28;20061;-40
2022/04/24 04:32:17;;;;;;;4.35;3.10;;;;;;;19.30;43.10;100552.72;5047254;28;20140;-42
2022/04/24 04:34:44;;;;;;;5.07;3.67;;;;;;;19.30;43.76;100544.66;5045845;28;20497;-42
2022/04/24 04:37:10;;;;;;;6.53;3.45;;;;;;;19.29;43.22;100549.16;5046683;28;20059;-41
2022/04/24 04:39:37;;;;;;;3.85;2.90;;;;;;;19.27;43.67;100553.88;5047131;28;20328;-43
2022/04/24 04:42:06;;;;;;;4.35;3.40;;;;;;;19.28;43.66;100557.41;5048107;28;20049;-43
2022/04/24 04:44:33;;;;;;;3.85;3.10;;;;;;;19.27;43.14;100559.25;5046898;28;20059;-40
2022/04/24 04:46:59;;;;;;;5.15;3.25;;;;;;;19.25;43.02;100563.94;5048633;28;20045;-40
2022/04/24 04:49:26;;;;;;;5.00;3.50;;;;;;;19.24;43.26;100563.09;5049724;28;20045;-40
2022/04/24 04:51:53;;;;;;;4.10;3.10;;;;;;;19.25;42.91;100563.94;5047397;28;20044;-41
2022/04/24 04:54:19;;;;;;;3.83;3.08;;;;;;;19.27;43.31;100563.78;5047302;28;20049;-41
2022/04/24 04:56:46;;;;;;;4.32;3.20;;;;;;;19.25;43.70;100563.94;5045582;28;20873;-41
2022/04/24 04:59:12;;;;;;;3.85;3.15;;;;;;;19.27;43.41;100571.84;5046906;28;20052;-42
2022/04/24 05:01:39;;;;;;;5.85;3.35;;;;;;;19.27;43.65;100570.00;5044387;28;20628;-40
2022/04/24 05:04:06;;;;;;;3.92;3.05;;;;;;;19.27;43.13;100577.22;5047404;28;20053;-42
2022/04/24 05:06:32;;;;;;;3.90;3.05;;;;;;;19.29;43.14;100569.81;5045205;28;20446;-40
2022/04/24 05:08:59;;;;;;;4.03;3.20;;;;;;;19.30;43.21;100567.00;5047836;28;20136;-40
2022/04/24 05:11:25;;;;;;;4.35;2.70;;;;;;;19.30;42.93;100576.91;5045722;28;20538;-41
2022/04/24 05:13:52;;;;;;;4.78;3.30;;;;;;;19.30;43.51;100583.09;5048891;28;20708;-40
2022/04/24 05:16:19;;;;;;;3.47;2.75;;;;;;;19.33;43.11;100588.13;5045910;28;20052;-40
2022/04/24 05:18:46;;;;;;;4.75;3.13;;;;;;;19.33;42.85;100588.13;5045192;28;20052;-42
2022/04/24 05:21:12;;;;;;;4.03;2.95;;;;;;;19.32;42.72;100591.81;5042925;28;20041;-40
2022/04/24 05:23:42;;;;;;;3.55;2.88;;;;;;;19.34;42.97;100586.31;5047142;28;20138;-40
2022/04/24 05:26:08;;;;;;;4.40;3.10;;;;;;;19.35;43.29;100593.34;5045234;28;20041;-40
2022/04/24 05:28:35;;;;;;;4.00;3.22;;;;;;;19.36;42.56;100589.66;5031882;28;20044;-40
2022/04/24 05:31:01;;;;;;;4.20;2.70;;;;;;;19.37;42.57;100596.69;5045659;28;20586;-41
2022/04/24 05:33:28;;;;;;;4.03;3.10;;;;;;;19.37;43.02;100588.63;5045809;28;20057;-42
2022/04/24 05:35:55;;;;;;;5.65;3.10;;;;;;;19.36;42.81;100589.66;5046265;28;20071;-40
2022/04/24 05:38:27;;;;;;;4.05;2.83;;;;;;;19.36;42.51;100597.72;5046080;28;20052;-40
2022/04/24 05:40:54;;;;;;;3.58;2.75;;;;;;;19.33;42.64;100601.56;5045864;28;20430;-41
2022/04/24 05:43:20;;;;;;;3.78;2.70;;;;;;;19.35;42.89;100599.56;5045560;28;20353;-41
2022/04/24 05:45:47;;;;;;;3.53;2.67;;;;;;;19.35;42.95;100598.72;5047705;28;20045;-41
2022/04/24 05:48:15;;;;;;;4.03;3.20;;;;;;;19.34;42.77;100603.25;5045135;28;20060;-41
2022/04/24 05:50:42;;;;;;;5.97;3.58;;;;;;;19.34;42.93;100607.81;5048706;28;20103;-41
2022/04/24 05:53:08;;;;;;;4.00;3.00;;;;;;;19.34;42.81;100610.50;5043607;28;20472;-41
2022/04/24 05:55:35;;;;;;;5.25;2.50;;;;;;;19.34;42.86;100607.81;5046960;28;20052;-41
2022/04/24 05:58:02;;;;;;;4.57;2.92;;;;;;;19.33;42.50;100609.63;5043604;28;20052;-42
2022/04/24 06:00:28;;;;;;;3.88;2.92;;;;;;;19.32;43.04;100609.81;5044552;28;20037;-41
2022/04/24 06:02:55;;;;;;;2.50;2.28;;;;;;;19.32;43.09;100610.63;5042509;28;20088;-41
2022/04/24 06:05:23;;;;;;;4.97;3.17;;;;;;;19.32;42.77;100607.13;5044803;28;20045;-41
2022/04/24 06:07:50;;;;;;;5.82;2.92;;;;;;;19.31;42.68;100608.13;5045341;28;20551;-41
2022/04/24 06:10:16;;;;;;;4.50;2.70;;;;;;;19.31;42.81;100618.88;5046350;28;20037;-40
2022/04/24 06:12:51;;;;;;;5.28;2.75;;;;;;;19.31;43.11;100613.50;5046238;28;20069;-41
2022/04/24 06:15:21;;;;;;;2.80;2.30;;;;;;;19.30;43.00;100614.53;5045424;28;20047;-41
2022/04/24 06:17:52;;;;;;;3.55;2.53;;;;;;;19.31;42.68;100621.56;5049482;28;20484;-41
2022/04/24 06:20:21;;;;;;;3.40;2.60;;;;;;;19.30;42.54;100618.03;5044285;28;20387;-41
2022/04/24 06:22:58;;;;;;;3.45;2.70;;;;;;;19.30;42.99;100623.41;5047109;28;20045;-41
2022/04/24 06:25:33;;;;;;;5.20;2.50;;;;;;;19.29;43.00;100624.41;5044364;28;20045;-42
2022/04/24 06:28:01;;;;;;;4.80;2.50;;;;;;;19.29;42.97;100627.09;5046889;28;20053;-41
2022/04/24 06:30:30;;;;;;;5.38;2.63;;;;;;;19.30;42.77;100628.78;5042452;28;20053;-41
2022/04/24 06:32:57;;;;;;;3.70;2.88;;;;;;;19.29;43.21;100626.25;5043450;28;20102;-41
2022/04/24 06:35:25;;;;;;;3.60;2.40;;;;;;;19.30;42.83;100626.09;5045560;28;20388;-41
2022/04/24 06:37:53;;;;;;;4.82;2.65;;;;;;;19.31;42.61;100635.84;5043736;28;20049;-41
2022/04/24 06:40:23;;;;;;;4.57;2.78;;;;;;;19.29;42.49;100628.94;5040221;28;20059;-41
2022/04/24 06:43:07;;;;;;;4.68;2.40;;;;;;;19.28;42.68;100636.16;5041250;28;20068;-41
2022/04/24 06:45:38;;;;;;;;;;;;;;;19.27;42.62;100625.59;5043329;28;20052;-40
2022/04/24 06:48:07;;;;;;;3.72;2.70;;;;;;;19.30;42.87;100633.34;5042350;28;20288;-41
2022/04/24 06:50:34;;;;;;;6.30;3.13;;;;;;;19.30;42.42;100638.72;5041670;28;20048;-40
2022/04/24 06:53:06;;;;;;;4.80;3.25;;;;;;;19.29;42.31;100635.16;5047018;28;20444;-41
2022/04/24 06:55:35;;;;;;;4.57;3.17;;;;;;;19.30;41.96;100633.34;5044161;28;20049;-41
2022/04/24 06:58:02;;;;;;;4.30;3.42;;;;;;;19.30;42.49;100636.03;5048950;28;20047;-41
2022/04/24 07:00:31;;;;;;;8.43;3.65;;;;;;;19.31;41.95;100640.38;5049479;28;20130;-41
2022/04/24 07:03:21;;;;;;;4.43;3.60;;;;;;;19.30;41.96;100639.53;5044890;28;20068;-41
2022/04/24 07:05:49;;;;;;;4.95;3.50;;;;;;;19.30;41.74;100634.16;5047185;28;20099;-41
2022/04/24 07:08:16;;;;;;;5.13;3.85;;;;;;;19.31;42.17;100630.47;5047243;28;20416;-41
2022/04/24 07:10:42;;;;;;;6.78;3.80;;;;;;;19.33;42.09;100638.34;5048094;28;20044;-41
2022/04/24 07:13:09;;;;;;;6.53;3.65;;;;;;;19.34;41.87;100640.06;5050275;28;20037;-40
2022/04/24 07:15:38;;;;;;;5.30;3.83;;;;;;;19.34;41.89;100640.88;5048093;28;20115;-40
2022/04/24 07:18:06;;;;;;;5.85;3.80;;;;;;;19.34;42.43;100648.13;5041375;28;20160;-40
2022/04/24 07:20:32;;;;;;;4.38;3.30;;;;;;;19.35;41.83;100655.16;5039015;28;20048;-39
2022/04/24 07:23:05;;;;;;;5.03;3.75;;;;;;;19.35;41.94;100652.47;5022363;28;20168;-39
2022/04/24 07:25:43;;;;;;;6.72;4.20;;;;;;;19.34;41.85;100653.50;5037852;28;20412;-40
2022/04/24 07:28:14;;;;;;;7.13;4.18;;;;;;;19.36;41.38;100662.22;5037909;28;20737;-40
2022/04/24 07:30:42;;;;;;;5.63;3.97;;;;;;;19.36;42.21;100663.03;5040230;28;20056;-41
2022/04/24 07:33:09;;;;;;;5.15;4.00;;;;;;;19.37;41.84;100658.50;5043010;28;20050;-41
2022/04/24 07:35:37;;;;;;;6.55;4.03;;;;;;;19.39;41.82;100661.88;5042918;28;20053;-41
2022/04/24 07:38:04;;;;;;;6.82;4.30;;;;;;;19.39;41.31;100660.03;5046394;28;20063;-41
2022/04/24 07:40:33;;;;;;;6.85;4.50;;;;;;;19.40;41.72;100656.34;5047074;28;20048;-39
2022/04/24 07:43:04;;;;;;;8.57;4.28;;;;;;;19.40;41.01;100661.69;5052279;28;20457;-40
2022/04/24 07:45:36;;;;;;;5.22;4.00;;;;;;;19.41;41.44;100654.47;5048570;28;20052;-41
2022/04/24 07:48:05;;;;;;;6.13;4.43;;;;;;;19.41;41.28;100663.38;5052047;28;20045;-41
2022/04/24 07:50:37;;;;;;;9.75;5.15;;;;;;;19.41;41.13;100657.16;5052971;28;20255;-40
2022/04/24 07:53:05;;;;;;;8.05;5.18;;;;;;;19.42;41.18;100659.69;5044347;28;20131;-41
2022/04/24 07:55:31;;;;;;;9.13;4.85;;;;;;;19.43;40.79;100661.38;5044662;28;20041;-41
2022/04/24 07:57:58;;;;;;;10.32;5.38;;;;;;;19.42;41.17;100659.69;5047447;28;20047;-41
2022/04/24 08:00:27;;;;;;;7.80;5.03;;;;;;;19.43;41.45;100655.16;5051020;28;20145;-42
2022/04/24 08:03:00;;;;;;;13.20;6.18;;;;;;;19.43;40.94;100663.22;5045483;28;20037;-42
2022/04/24 08:05:30;;;;;;;14.15;5.82;;;;;;;19.43;40.75;100664.06;5046782;28;20150;-42
2022/04/24 08:07:58;;;;;;;13.27;5.78;;;;;;;19.44;40.86;100659.53;5044686;28;20133;-41
2022/04/24 08:10:27;;;;;;;10.10;5.28;;;;;;;19.45;40.76;100663.88;5045968;28;20152;-42
2022/04/24 08:12:54;;;;;;;12.25;6.60;;;;;;;19.44;41.15;100656.84;5048218;28;20128;-42
2022/04/24 08:15:21;;;;;;;13.07;7.10;;;;;;;19.45;41.01;100666.56;5048540;28;20479;-41
2022/04/24 08:17:48;;;;;;;14.25;8.20;;;;;;;19.45;40.66;100671.94;5047897;28;20116;-42
2022/04/24 08:20:16;;;;;;;16.35;7.80;;;;;;;19.44;41.40;100665.75;5051103;28;20385;-39
2022/04/24 08:22:45;;;;;;;16.85;8.55;;;;;;;19.45;40.90;100671.94;5052680;28;20107;-40
2022/04/24 08:25:17;;;;;;;16.17;8.50;;;;;;;19.46;41.27;100673.66;5052381;28;20055;-42
2022/04/24 08:27:45;;;;;;;15.00;8.32;;;;;;;19.45;41.40;100670.09;5047709;28;20476;-41
2022/04/24 08:30:13;;;;;;;16.83;8.82;;;;;;;19.47;40.76;100678.00;5053413;28;20483;-41
2022/04/24 08:32:41;;;;;;;16.05;9.27;;;;;;;19.47;41.51;100678.84;5051984;28;20044;-41
2022/04/24 08:35:10;;;;;;;16.98;9.85;;;;;;;19.48;41.31;100668.94;5048663;28;20435;-41
2022/04/24 08:37:37;;;;;;;21.40;11.23;;;;;;;19.48;41.49;100674.31;5049697;28;20069;-41
2022/04/24 08:40:08;;;;;;;21.90;10.75;;;;;;;19.49;40.70;100673.28;5052151;28;20431;-41
2022/04/24 08:42:35;;;;;;;17.48;10.10;;;;;;;19.50;40.70;100669.63;5050736;28;21564;-40
2022/04/24 08:45:04;;;;;;;20.55;10.98;;;;;;;19.51;41.43;100682.03;5048190;28;20385;-40
2022/04/24 08:47:31;;;;;;;22.55;11.98;;;;;;;19.52;41.38;100683.72;5047560;28;20036;-40
2022/04/24 08:50:00;;;;;;;20.23;11.15;;;;;;;19.53;41.18;100689.94;5046966;28;20053;-39
2022/04/24 08:52:29;;;;;;;22.38;11.27;;;;;;;19.54;41.17;100688.91;5050818;28;20045;-39
2022/04/24 08:54:57;;;;;;;18.60;11.38;;;;;;;19.55;41.14;100680.72;5043734;28;20049;-42
2022/04/24 08:57:30;;;;;;;19.85;11.10;;;;;;;19.57;41.03;100681.38;5041256;28;20492;-41
2022/04/24 08:59:58;;;;;;;22.08;11.80;;;;;;;19.58;40.88;100685.75;5043879;28;20057;-41
2022/04/24 09:02:47;;;;;;;22.15;12.32;;;;;;;19.61;41.18;100688.13;5044112;28;20393;-40
2022/04/24 09:05:14;;;;;;;21.63;11.73;;;;;;;19.64;40.81;100689.63;5044069;28;20107;-40
2022/04/24 09:07:43;;;;;;;19.67;11.63;;;;;;;19.64;40.36;100687.78;5043146;28;20056;-40
2022/04/24 09:10:30;;;;;;;20.38;11.63;;;;;;;19.67;40.83;100690.16;5043973;28;20400;-40
2022/04/24 09:12:59;;;;;;;20.92;11.07;;;;;;;19.69;40.74;100692.66;5044162;28;20044;-41
2022/04/24 09:15:27;;;;;;;18.10;10.73;;;;;;;19.70;41.02;100695.19;5044686;28;20376;-41
2022/04/24 09:18:00;;;;;;;16.92;10.70;;;;;;;19.72;41.05;100687.78;5044957;28;20052;-41
2022/04/24 09:20:41;;;;;;;21.92;11.75;;;;;;;19.76;41.09;100687.47;5043362;28;20076;-44
2022/04/24 09:23:08;;;;;;;19.13;12.13;;;;;;;19.78;41.27;100691.66;5045825;28;20048;-43
2022/04/24 09:25:39;;;;;;;16.88;10.35;;;;;;;19.79;40.82;100687.97;5044799;28;20052;-41
2022/04/24 09:28:05;;;;;;;15.73;9.95;;;;;;;19.83;41.17;100696.53;5050919;28;20045;-41
2022/04/24 09:30:35;;;;;;;17.58;9.32;;;;;;;19.83;40.75;100692.00;5049302;28;20621;-42
2022/04/24 09:33:06;;;;;;;17.50;8.98;;;;;;;19.88;40.21;100707.63;5049977;28;20048;-41
2022/04/24 09:35:36;;;;;;;15.77;8.95;;;;;;;19.91;40.22;100697.38;5048639;28;20476;-43
2022/04/24 09:38:14;;;;;;;19.13;9.63;;;;;;;19.94;40.38;100697.03;5051116;28;20048;-41
2022/04/24 09:40:49;;;;;;;15.93;8.63;;;;;;;20.02;39.62;100695.31;5049797;28;21292;-42
2022/04/24 09:43:17;;;;;;;15.57;8.68;;;;;;;20.05;40.15;100684.22;5049297;28;20103;-43
2022/04/24 09:45:55;;;;;;;13.60;8.25;;;;;;;20.09;39.63;100688.25;5050052;28;20044;-43
2022/04/24 09:48:23;;;;;;;15.57;7.93;;;;;;;20.14;39.30;100686.75;5046944;28;20397;-42
2022/04/24 09:50:50;;;;;;;16.92;8.77;;;;;;;20.18;40.00;100698.84;5045324;28;20057;-43
2022/04/24 09:53:19;;;;;;;17.85;8.32;;;;;;;20.22;39.72;100696.63;5045301;28;20045;-43
2022/04/24 09:55:49;;;;;;;12.00;7.43;;;;;;;20.27;38.95;100694.28;5049338;28;20068;-43
2022/04/24 09:58:16;;;;;;;13.88;7.35;;;;;;;20.31;39.11;100692.09;5047274;28;20044;-45
2022/04/24 10:00:44;;;;;;;14.65;7.63;;;;;;;20.35;39.27;100690.72;5047622;28;20041;-42
2022/04/24 10:03:14;;;;;;;11.15;6.95;;;;;;;20.38;39.11;100698.44;5049710;28;20041;-45
2022/04/24 10:05:45;;;;;;;12.63;7.47;;;;;;;20.42;39.59;100697.94;5044917;28;20136;-43
2022/04/24 10:08:12;;;;;;;12.90;7.18;;;;;;;20.44;39.17;100687.81;5043870;28;20039;-43
2022/04/24 10:10:39;;;;;;;12.10;7.28;;;;;;;20.48;39.07;100685.63;5041547;28;20072;-44
2022/04/24 10:13:09;;;;;;;13.23;8.50;;;;;;;20.52;39.96;100688.84;5044926;28;20059;-45
2022/04/24 10:15:43;;;;;;;15.25;8.00;;;;;;;20.55;39.62;100691.22;5041853;28;20136;-42
2022/04/24 10:18:16;;;;;;;12.00;7.85;;;;;;;20.58;39.57;100705.16;5041062;28;20041;-45
2022/04/24 10:21:04;;;;;;;13.48;7.03;;;;;;;20.60;39.51;100697.75;5041674;28;20057;-46
2022/04/24 10:23:37;;;;;;;15.27;6.80;;;;;;;20.63;39.57;100708.16;5037732;28;20135;-46
2022/04/24 10:26:24;;;;;;;12.03;6.80;;;;;;;20.65;39.25;100699.91;5049099;28;20380;-45
2022/04/24 10:29:07;;;;;;;13.18;6.72;;;;;;;20.66;39.53;100705.13;5028528;28;20044;-46
2022/04/24 10:31:42;;;;;;;11.98;6.80;;;;;;;20.69;39.22;100704.75;5047962;28;20140;-45
2022/04/24 10:34:09;;;;;;;9.80;6.20;;;;;;;20.72;39.15;100711.66;5048122;28;20052;-45
2022/04/24 10:36:36;;;;;;;8.45;5.13;;;;;;;20.75;39.44;100705.09;5049064;28;20148;-46
2022/04/24 10:39:14;;;;;;;10.90;5.82;;;;;;;20.75;38.05;100702.41;5051119;28;20041;-43
2022/04/24 10:42:07;;;;;;;7.65;5.28;;;;;;;20.79;37.65;100711.81;5051064;28;20056;-44
2022/04/24 10:44:33;;;;;;;9.98;5.38;;;;;;;20.81;38.30;100720.53;5050163;28;20115;-46
2022/04/24 10:47:10;;;;;;;10.80;5.03;;;;;;;20.82;38.03;100712.28;5050471;28;20128;-42
2022/04/24 10:49:37;;;;;;;7.00;4.40;;;;;;;20.84;38.29;100706.72;5049499;28;20072;-42
2022/04/24 10:52:05;;;;;;;8.48;4.85;;;;;;;20.86;38.68;100712.78;5049518;28;20067;-41
2022/04/24 10:54:38;;;;;;;8.68;5.05;;;;;;;20.87;38.36;100706.38;5046863;28;20332;-42
2022/04/24 10:57:16;;;;;;;9.30;4.55;;;;;;;20.90;37.70;100711.41;5041885;28;20053;-41
2022/04/24 10:59:48;;;;;;;9.30;5.07;;;;;;;20.92;38.44;100706.69;5043119;28;20143;-41
2022/04/24 11:02:20;;;;;;;27.80;14.70;;;;;;;20.92;38.24;100706.69;5048391;28;20132;-41
2022/04/24 11:04:57;;;;;;;18.95;9.82;;;;;;;20.94;38.59;100707.34;5043790;28;20053;-40
2022/04/24 11:07:24;;;;;;;18.33;8.73;;;;;;;20.95;37.99;100707.19;5017426;28;20863;-40
2022/04/24 11:10:09;;;;;;;19.45;10.52;;;;;;;20.96;38.00;100705.31;5047801;28;20060;-41
2022/04/24 11:12:37;;;;;;;18.83;11.15;;;;;;;20.99;38.06;100691.50;5053530;28;20127;-41
2022/04/24 11:15:05;;;;;;;17.77;10.82;;;;;;;21.00;37.65;100692.34;5054198;28;20053;-43
2022/04/24 11:17:32;;;;;;;25.40;13.25;;;;;;;21.01;37.70;100700.25;5054561;28;20077;-41
2022/04/24 11:19:59;;;;;;;19.98;12.40;;;;;;;21.01;37.62;100689.47;5050421;28;20040;-42
2022/04/24 11:22:26;;;;;;;23.63;12.15;;;;;;;21.05;37.78;100689.94;5050239;28;20037;-41
2022/04/24 11:24:55;;;;;;;27.15;15.70;;;;;;;21.06;37.85;100708.63;5051916;28;20044;-43
2022/04/24 11:27:25;;;;;;;43.13;24.80;;;;;;;21.08;38.27;100692.28;5053322;28;20040;-42